LOT3 KEWR-KDTW
Flight info
| Callsign | LOT3 |
|---|---|
| Flight time | 1h 23m |
| Altitude | 38000 |
| Route | GAYEL J95 CFB TRAAD JACCI FERRL2 |
| Aircraft | A20N/M-SDE2E3FGHIRWXY/LB1 |
Departure
| Time | 2026-05-06 14:56 |
|---|---|
| Airport | Newark Liberty International Airport (KEWR) |
Arrival
| Time | 2026-05-06 16:19 |
|---|---|
| Airport | Detroit Metropolitan Wayne County Airport (KDTW) |
| Time | Latitude | Longitude | Altitude | Speed | Heading |
|---|---|---|---|---|---|
| 2026-05-06 14:03 | 40.68318 | -74.18463 | 17 ft | 0 kts | 5° |
| 2026-05-06 14:44 | 40.68317 | -74.18463 | 18 ft | 0 kts | 5° |
| 2026-05-06 14:45 | 40.68303 | -74.18465 | 18 ft | 2 kts | 6° |
| 2026-05-06 14:45 | 40.68287 | -74.18467 | 18 ft | 2 kts | 5° |
| 2026-05-06 14:45 | 40.68271 | -74.18474 | 17 ft | 2 kts | 36° |
| 2026-05-06 14:45 | 40.68259 | -74.18491 | 18 ft | 2 kts | 63° |
| 2026-05-06 14:46 | 40.68255 | -74.18511 | 18 ft | 1 kts | 89° |
| 2026-05-06 14:46 | 40.68255 | -74.18520 | 18 ft | 1 kts | 96° |
| 2026-05-06 14:46 | 40.68255 | -74.18523 | 18 ft | 0 kts | 95° |
| 2026-05-06 14:48 | 40.68255 | -74.18522 | 18 ft | 0 kts | 95° |
| 2026-05-06 14:48 | 40.68254 | -74.18505 | 18 ft | 2 kts | 94° |
| 2026-05-06 14:48 | 40.68253 | -74.18465 | 18 ft | 4 kts | 94° |
| 2026-05-06 14:48 | 40.68249 | -74.18408 | 18 ft | 6 kts | 95° |
| 2026-05-06 14:49 | 40.68244 | -74.18337 | 18 ft | 7 kts | 95° |
| 2026-05-06 14:49 | 40.68240 | -74.18252 | 17 ft | 9 kts | 94° |
| 2026-05-06 14:49 | 40.68242 | -74.18156 | 17 ft | 10 kts | 78° |
| 2026-05-06 14:49 | 40.68241 | -74.18048 | 17 ft | 11 kts | 95° |
| 2026-05-06 14:50 | 40.68216 | -74.17937 | 17 ft | 11 kts | 116° |
| 2026-05-06 14:50 | 40.68176 | -74.17827 | 17 ft | 12 kts | 116° |
| 2026-05-06 14:50 | 40.68165 | -74.17714 | 17 ft | 12 kts | 40° |
| 2026-05-06 14:50 | 40.68255 | -74.17654 | 17 ft | 13 kts | 26° |
| 2026-05-06 14:51 | 40.68351 | -74.17592 | 17 ft | 14 kts | 26° |
| 2026-05-06 14:51 | 40.68451 | -74.17529 | 17 ft | 14 kts | 26° |
| 2026-05-06 14:51 | 40.68558 | -74.17461 | 17 ft | 15 kts | 26° |
| 2026-05-06 14:51 | 40.68666 | -74.17394 | 17 ft | 16 kts | 25° |
| 2026-05-06 14:52 | 40.68779 | -74.17322 | 17 ft | 16 kts | 26° |
| 2026-05-06 14:52 | 40.68896 | -74.17248 | 17 ft | 16 kts | 26° |
| 2026-05-06 14:52 | 40.69015 | -74.17173 | 17 ft | 17 kts | 26° |
| 2026-05-06 14:52 | 40.69135 | -74.17097 | 17 ft | 17 kts | 26° |
| 2026-05-06 14:53 | 40.69259 | -74.17018 | 17 ft | 17 kts | 26° |
| 2026-05-06 14:53 | 40.69383 | -74.16939 | 17 ft | 18 kts | 26° |
| 2026-05-06 14:53 | 40.69507 | -74.16860 | 17 ft | 18 kts | 26° |
| 2026-05-06 14:53 | 40.69633 | -74.16781 | 17 ft | 18 kts | 25° |
| 2026-05-06 14:54 | 40.69759 | -74.16701 | 17 ft | 18 kts | 26° |
| 2026-05-06 14:54 | 40.69886 | -74.16621 | 17 ft | 18 kts | 25° |
| 2026-05-06 14:54 | 40.70012 | -74.16537 | 17 ft | 18 kts | 26° |
| 2026-05-06 14:54 | 40.70064 | -74.16444 | 17 ft | 12 kts | 96° |
| 2026-05-06 14:55 | 40.69995 | -74.16389 | 17 ft | 13 kts | 201° |
| 2026-05-06 14:55 | 40.69849 | -74.16479 | 17 ft | 46 kts | 204° |
| 2026-05-06 14:55 | 40.69272 | -74.16846 | 18 ft | 119 kts | 205° |
| 2026-05-06 14:55 | 40.68258 | -74.17484 | 167 ft | 162 kts | 207° |
| 2026-05-06 14:56 | 40.67090 | -74.18199 | 819 ft | 168 kts | 205° |
| 2026-05-06 14:56 | 40.65852 | -74.18617 | 1659 ft | 169 kts | 193° |
| 2026-05-06 14:56 | 40.64523 | -74.18845 | 2392 ft | 177 kts | 192° |
| 2026-05-06 14:56 | 40.63101 | -74.19186 | 2968 ft | 190 kts | 206° |
| 2026-05-06 14:57 | 40.61894 | -74.20476 | 3470 ft | 211 kts | 236° |
| 2026-05-06 14:57 | 40.61198 | -74.22556 | 4139 ft | 229 kts | 245° |
| 2026-05-06 14:57 | 40.60857 | -74.24964 | 4941 ft | 248 kts | 270° |
| 2026-05-06 14:57 | 40.61477 | -74.27421 | 5957 ft | 263 kts | 295° |
| 2026-05-06 14:58 | 40.63007 | -74.29323 | 6953 ft | 283 kts | 326° |
| 2026-05-06 14:58 | 40.65248 | -74.30083 | 7827 ft | 303 kts | 349° |
| 2026-05-06 14:58 | 40.67644 | -74.30271 | 8611 ft | 313 kts | 353° |
| 2026-05-06 14:58 | 40.70139 | -74.30378 | 9442 ft | 320 kts | 353° |
| 2026-05-06 14:59 | 40.72669 | -74.30503 | 10279 ft | 325 kts | 352° |
| 2026-05-06 14:59 | 40.75313 | -74.30671 | 10844 ft | 340 kts | 351° |
| 2026-05-06 14:59 | 40.78048 | -74.30870 | 11278 ft | 358 kts | 351° |
| 2026-05-06 14:59 | 40.80943 | -74.31089 | 11684 ft | 377 kts | 351° |
| 2026-05-06 15:00 | 40.84031 | -74.31327 | 12114 ft | 393 kts | 351° |
| 2026-05-06 15:00 | 40.87164 | -74.31564 | 12819 ft | 400 kts | 351° |
| 2026-05-06 15:00 | 40.90388 | -74.31803 | 13657 ft | 402 kts | 351° |
| 2026-05-06 15:00 | 40.93591 | -74.32046 | 14459 ft | 404 kts | 351° |
| 2026-05-06 15:01 | 40.96809 | -74.32291 | 15211 ft | 407 kts | 350° |
| 2026-05-06 15:01 | 41.00079 | -74.32543 | 15936 ft | 411 kts | 350° |
| 2026-05-06 15:01 | 41.03377 | -74.32799 | 16683 ft | 413 kts | 350° |
| 2026-05-06 15:01 | 41.06690 | -74.33054 | 17389 ft | 416 kts | 349° |
| 2026-05-06 15:02 | 41.10009 | -74.33310 | 18089 ft | 418 kts | 349° |
| 2026-05-06 15:02 | 41.13355 | -74.33572 | 18737 ft | 422 kts | 349° |
| 2026-05-06 15:02 | 41.16699 | -74.33833 | 19373 ft | 424 kts | 349° |
| 2026-05-06 15:02 | 41.20084 | -74.34098 | 20030 ft | 426 kts | 349° |
| 2026-05-06 15:03 | 41.23457 | -74.34366 | 20631 ft | 429 kts | 349° |
| 2026-05-06 15:03 | 41.26918 | -74.34637 | 21184 ft | 433 kts | 349° |
| 2026-05-06 15:03 | 41.30377 | -74.34906 | 21751 ft | 437 kts | 349° |
| 2026-05-06 15:03 | 41.33815 | -74.35172 | 22325 ft | 439 kts | 349° |
| 2026-05-06 15:04 | 41.37241 | -74.35580 | 22863 ft | 433 kts | 340° |
| 2026-05-06 15:04 | 41.40329 | -74.37269 | 23270 ft | 416 kts | 319° |
| 2026-05-06 15:04 | 41.42648 | -74.40190 | 23705 ft | 402 kts | 300° |
| 2026-05-06 15:04 | 41.44257 | -74.43753 | 24368 ft | 396 kts | 293° |
| 2026-05-06 15:05 | 41.45773 | -74.47355 | 24888 ft | 398 kts | 294° |
| 2026-05-06 15:05 | 41.47343 | -74.51058 | 25133 ft | 407 kts | 294° |
| 2026-05-06 15:05 | 41.48931 | -74.54768 | 25595 ft | 409 kts | 293° |
| 2026-05-06 15:05 | 41.50554 | -74.58520 | 26095 ft | 410 kts | 294° |
| 2026-05-06 15:06 | 41.52164 | -74.62249 | 26557 ft | 412 kts | 294° |
| 2026-05-06 15:06 | 41.53817 | -74.66077 | 27019 ft | 412 kts | 293° |
| 2026-05-06 15:06 | 41.55451 | -74.69877 | 27459 ft | 413 kts | 293° |
| 2026-05-06 15:06 | 41.57107 | -74.73724 | 27946 ft | 412 kts | 293° |
| 2026-05-06 15:07 | 41.58724 | -74.77483 | 28466 ft | 410 kts | 292° |
| 2026-05-06 15:07 | 41.60318 | -74.81202 | 28936 ft | 408 kts | 293° |
| 2026-05-06 15:07 | 41.61937 | -74.84980 | 29460 ft | 404 kts | 292° |
| 2026-05-06 15:07 | 41.63512 | -74.88648 | 30009 ft | 399 kts | 292° |
| 2026-05-06 15:08 | 41.65079 | -74.92318 | 30489 ft | 396 kts | 292° |
| 2026-05-06 15:08 | 41.66624 | -74.95941 | 30829 ft | 396 kts | 292° |
| 2026-05-06 15:08 | 41.68153 | -74.99539 | 31149 ft | 396 kts | 292° |
| 2026-05-06 15:08 | 41.69702 | -75.03181 | 31448 ft | 396 kts | 292° |
| 2026-05-06 15:09 | 41.71247 | -75.06822 | 31804 ft | 395 kts | 291° |
| 2026-05-06 15:09 | 41.72771 | -75.10413 | 32144 ft | 394 kts | 292° |
| 2026-05-06 15:09 | 41.74296 | -75.14019 | 32446 ft | 393 kts | 292° |
| 2026-05-06 15:09 | 41.75851 | -75.17687 | 32755 ft | 393 kts | 291° |
| 2026-05-06 15:10 | 41.77386 | -75.21326 | 33082 ft | 391 kts | 292° |
| 2026-05-06 15:10 | 41.78917 | -75.24955 | 33484 ft | 388 kts | 292° |
| 2026-05-06 15:10 | 41.80431 | -75.28547 | 33756 ft | 388 kts | 292° |
| 2026-05-06 15:10 | 41.81952 | -75.32159 | 33999 ft | 388 kts | 292° |
| 2026-05-06 15:11 | 41.83467 | -75.35761 | 34252 ft | 388 kts | 291° |
| 2026-05-06 15:11 | 41.84989 | -75.39381 | 34509 ft | 388 kts | 291° |
| 2026-05-06 15:11 | 41.86488 | -75.42965 | 34831 ft | 385 kts | 292° |
| 2026-05-06 15:11 | 41.87995 | -75.46557 | 35144 ft | 383 kts | 291° |
| 2026-05-06 15:12 | 41.89481 | -75.50111 | 35401 ft | 381 kts | 291° |
| 2026-05-06 15:12 | 41.90951 | -75.53640 | 35694 ft | 379 kts | 291° |
| 2026-05-06 15:12 | 41.92405 | -75.57124 | 35927 ft | 377 kts | 292° |
| 2026-05-06 15:12 | 41.93880 | -75.60662 | 36176 ft | 375 kts | 291° |
| 2026-05-06 15:13 | 41.95333 | -75.64139 | 36354 ft | 374 kts | 291° |
| 2026-05-06 15:13 | 41.96774 | -75.67592 | 36501 ft | 374 kts | 291° |
| 2026-05-06 15:13 | 41.98216 | -75.71068 | 36653 ft | 374 kts | 291° |
| 2026-05-06 15:13 | 41.99629 | -75.74474 | 36852 ft | 373 kts | 291° |
| 2026-05-06 15:14 | 42.01072 | -75.77949 | 37041 ft | 372 kts | 291° |
| 2026-05-06 15:14 | 42.03944 | -75.84896 | 37178 ft | 375 kts | 291° |
| 2026-05-06 15:14 | 42.05363 | -75.88330 | 37309 ft | 375 kts | 290° |
| 2026-05-06 15:15 | 42.06825 | -75.91873 | 37401 ft | 375 kts | 290° |
| 2026-05-06 15:15 | 42.09695 | -75.98862 | 37592 ft | 375 kts | 291° |
| 2026-05-06 15:16 | 42.12449 | -76.05903 | 37670 ft | 373 kts | 287° |
| 2026-05-06 15:16 | 42.14591 | -76.13292 | 37779 ft | 368 kts | 282° |
| 2026-05-06 15:16 | 42.15424 | -76.17133 | 37556 ft | 366 kts | 278° |
| 2026-05-06 15:17 | 42.16068 | -76.20946 | 37637 ft | 363 kts | 276° |
| 2026-05-06 15:17 | 42.16860 | -76.28559 | 37767 ft | 361 kts | 272° |
| 2026-05-06 15:18 | 42.17468 | -76.36272 | 37789 ft | 362 kts | 272° |
| 2026-05-06 15:18 | 42.18058 | -76.43896 | 37796 ft | 362 kts | 272° |
| 2026-05-06 15:19 | 42.18648 | -76.51604 | 37797 ft | 361 kts | 272° |
| 2026-05-06 15:19 | 42.19224 | -76.59300 | 37792 ft | 361 kts | 272° |
| 2026-05-06 15:20 | 42.19786 | -76.66930 | 37799 ft | 361 kts | 271° |
| 2026-05-06 15:20 | 42.20350 | -76.74622 | 37789 ft | 362 kts | 271° |
| 2026-05-06 15:21 | 42.20913 | -76.82303 | 37799 ft | 362 kts | 271° |
| 2026-05-06 15:21 | 42.21463 | -76.90023 | 37784 ft | 362 kts | 272° |
| 2026-05-06 15:22 | 42.22012 | -76.97704 | 37783 ft | 362 kts | 272° |
| 2026-05-06 15:22 | 42.22557 | -77.05398 | 37784 ft | 362 kts | 271° |
| 2026-05-06 15:23 | 42.23091 | -77.13071 | 37788 ft | 362 kts | 272° |
| 2026-05-06 15:23 | 42.23626 | -77.20760 | 37797 ft | 363 kts | 271° |
| 2026-05-06 15:24 | 42.24149 | -77.28460 | 37803 ft | 364 kts | 271° |
| 2026-05-06 15:24 | 42.24672 | -77.36154 | 37814 ft | 364 kts | 272° |
| 2026-05-06 15:25 | 42.25190 | -77.43884 | 37821 ft | 363 kts | 271° |
| 2026-05-06 15:25 | 42.25861 | -77.51607 | 37820 ft | 365 kts | 275° |
| 2026-05-06 15:26 | 42.27066 | -77.59276 | 37818 ft | 367 kts | 278° |
| 2026-05-06 15:26 | 42.28430 | -77.66893 | 37799 ft | 368 kts | 278° |
| 2026-05-06 15:27 | 42.29764 | -77.74328 | 37797 ft | 369 kts | 278° |
| 2026-05-06 15:27 | 42.31134 | -77.81998 | 37799 ft | 368 kts | 278° |
| 2026-05-06 15:28 | 42.32491 | -77.89599 | 37800 ft | 369 kts | 278° |
| 2026-05-06 15:28 | 42.33849 | -77.97247 | 37819 ft | 369 kts | 278° |
| 2026-05-06 15:29 | 42.35203 | -78.04888 | 37818 ft | 368 kts | 278° |
| 2026-05-06 15:29 | 42.36544 | -78.12521 | 37823 ft | 369 kts | 278° |
| 2026-05-06 15:30 | 42.37890 | -78.20184 | 37831 ft | 369 kts | 278° |
| 2026-05-06 15:30 | 42.39227 | -78.27832 | 37824 ft | 369 kts | 278° |
| 2026-05-06 15:31 | 42.40560 | -78.35495 | 37820 ft | 370 kts | 278° |
| 2026-05-06 15:31 | 42.41888 | -78.43153 | 37810 ft | 370 kts | 278° |
| 2026-05-06 15:32 | 42.43865 | -78.54639 | 37814 ft | 370 kts | 278° |
| 2026-05-06 15:32 | 42.45179 | -78.62334 | 37817 ft | 370 kts | 278° |
| 2026-05-06 15:33 | 42.46390 | -78.69908 | 37839 ft | 368 kts | 275° |
| 2026-05-06 15:33 | 42.47094 | -78.77638 | 37828 ft | 367 kts | 271° |
| 2026-05-06 15:34 | 42.47390 | -78.85407 | 37851 ft | 367 kts | 269° |
| 2026-05-06 15:34 | 42.47658 | -78.93150 | 37862 ft | 366 kts | 270° |
| 2026-05-06 15:35 | 42.47914 | -79.00926 | 37857 ft | 367 kts | 269° |
| 2026-05-06 15:35 | 42.48158 | -79.08701 | 37843 ft | 366 kts | 270° |
| 2026-05-06 15:36 | 42.48402 | -79.16485 | 37864 ft | 367 kts | 269° |
| 2026-05-06 15:36 | 42.48637 | -79.24246 | 37861 ft | 367 kts | 270° |
| 2026-05-06 15:37 | 42.48870 | -79.32031 | 37859 ft | 367 kts | 270° |
| 2026-05-06 15:37 | 42.49093 | -79.39754 | 37854 ft | 366 kts | 270° |
| 2026-05-06 15:38 | 42.49316 | -79.47548 | 37857 ft | 368 kts | 270° |
| 2026-05-06 15:38 | 42.49530 | -79.55353 | 37853 ft | 366 kts | 270° |
| 2026-05-06 15:39 | 42.49738 | -79.63117 | 37843 ft | 368 kts | 269° |
| 2026-05-06 15:39 | 42.49941 | -79.70895 | 37860 ft | 368 kts | 269° |
| 2026-05-06 15:40 | 42.50141 | -79.78737 | 37841 ft | 367 kts | 269° |
| 2026-05-06 15:40 | 42.50338 | -79.86566 | 37841 ft | 367 kts | 269° |
| 2026-05-06 15:41 | 42.50528 | -79.94348 | 37850 ft | 367 kts | 269° |
| 2026-05-06 15:41 | 42.50712 | -80.02172 | 37857 ft | 366 kts | 269° |
| 2026-05-06 15:42 | 42.50886 | -80.09940 | 37866 ft | 365 kts | 269° |
| 2026-05-06 15:42 | 42.51057 | -80.17744 | 37864 ft | 367 kts | 269° |
| 2026-05-06 15:43 | 42.51227 | -80.25493 | 37869 ft | 366 kts | 269° |
| 2026-05-06 15:43 | 42.51387 | -80.33218 | 37866 ft | 367 kts | 269° |
| 2026-05-06 15:44 | 42.51542 | -80.41058 | 37867 ft | 368 kts | 269° |
| 2026-05-06 15:44 | 42.51692 | -80.48823 | 37870 ft | 367 kts | 269° |
| 2026-05-06 15:45 | 42.51836 | -80.56603 | 37850 ft | 367 kts | 269° |
| 2026-05-06 15:45 | 42.51969 | -80.64439 | 37863 ft | 369 kts | 269° |
| 2026-05-06 15:46 | 42.52052 | -80.72182 | 37867 ft | 367 kts | 268° |
| 2026-05-06 15:46 | 42.52088 | -80.76077 | 37598 ft | 370 kts | 268° |
| 2026-05-06 15:46 | 42.52125 | -80.80006 | 36819 ft | 371 kts | 268° |
| 2026-05-06 15:47 | 42.52164 | -80.83982 | 36001 ft | 372 kts | 268° |
| 2026-05-06 15:47 | 42.52200 | -80.87913 | 35276 ft | 373 kts | 268° |
| 2026-05-06 15:47 | 42.52236 | -80.91898 | 34454 ft | 376 kts | 269° |
| 2026-05-06 15:47 | 42.52270 | -80.95950 | 33556 ft | 380 kts | 269° |
| 2026-05-06 15:48 | 42.52306 | -81.00039 | 32663 ft | 382 kts | 268° |
| 2026-05-06 15:48 | 42.52337 | -81.04204 | 31723 ft | 384 kts | 268° |
| 2026-05-06 15:48 | 42.52371 | -81.08379 | 30813 ft | 387 kts | 268° |
| 2026-05-06 15:48 | 42.52400 | -81.12553 | 29809 ft | 389 kts | 268° |
| 2026-05-06 15:49 | 42.52425 | -81.16769 | 28799 ft | 390 kts | 268° |
| 2026-05-06 15:49 | 42.52449 | -81.21038 | 27816 ft | 391 kts | 268° |
| 2026-05-06 15:49 | 42.52476 | -81.25317 | 27176 ft | 390 kts | 268° |
| 2026-05-06 15:49 | 42.52499 | -81.29604 | 27013 ft | 393 kts | 268° |
| 2026-05-06 15:50 | 42.52520 | -81.33886 | 26880 ft | 392 kts | 268° |
| 2026-05-06 15:50 | 42.52422 | -81.38079 | 26684 ft | 376 kts | 265° |
| 2026-05-06 15:50 | 42.52158 | -81.42123 | 26188 ft | 366 kts | 263° |
| 2026-05-06 15:50 | 42.51874 | -81.46011 | 25689 ft | 357 kts | 263° |
| 2026-05-06 15:51 | 42.51593 | -81.49817 | 25212 ft | 349 kts | 262° |
| 2026-05-06 15:51 | 42.51314 | -81.53550 | 24605 ft | 345 kts | 263° |
| 2026-05-06 15:51 | 42.51036 | -81.57239 | 24084 ft | 339 kts | 263° |
| 2026-05-06 15:51 | 42.50769 | -81.60804 | 23605 ft | 334 kts | 262° |
| 2026-05-06 15:52 | 42.50497 | -81.64371 | 23137 ft | 329 kts | 262° |
| 2026-05-06 15:52 | 42.50229 | -81.67859 | 22672 ft | 325 kts | 262° |
| 2026-05-06 15:52 | 42.49974 | -81.71193 | 22209 ft | 322 kts | 262° |
| 2026-05-06 15:52 | 42.49715 | -81.74579 | 21716 ft | 320 kts | 262° |
| 2026-05-06 15:53 | 42.49453 | -81.77977 | 21220 ft | 318 kts | 262° |
| 2026-05-06 15:53 | 42.49191 | -81.81359 | 20702 ft | 316 kts | 262° |
| 2026-05-06 15:53 | 42.48928 | -81.84737 | 20166 ft | 316 kts | 262° |
| 2026-05-06 15:53 | 42.48667 | -81.88109 | 19645 ft | 314 kts | 262° |
| 2026-05-06 15:54 | 42.48401 | -81.91505 | 19130 ft | 311 kts | 262° |
| 2026-05-06 15:54 | 42.48142 | -81.94795 | 18652 ft | 309 kts | 262° |
| 2026-05-06 15:54 | 42.47882 | -81.98074 | 18167 ft | 306 kts | 262° |
| 2026-05-06 15:54 | 42.47621 | -82.01386 | 17675 ft | 304 kts | 262° |
| 2026-05-06 15:55 | 42.47365 | -82.04635 | 17190 ft | 302 kts | 262° |
| 2026-05-06 15:55 | 42.47107 | -82.07839 | 16712 ft | 300 kts | 262° |
| 2026-05-06 15:55 | 42.46852 | -82.11036 | 16218 ft | 298 kts | 262° |
| 2026-05-06 15:55 | 42.46594 | -82.14229 | 15723 ft | 297 kts | 262° |
| 2026-05-06 15:56 | 42.46335 | -82.17429 | 15222 ft | 296 kts | 262° |
| 2026-05-06 15:56 | 42.46080 | -82.20579 | 14744 ft | 294 kts | 262° |
| 2026-05-06 15:56 | 42.45824 | -82.23730 | 14270 ft | 293 kts | 262° |
| 2026-05-06 15:56 | 42.45570 | -82.26839 | 13803 ft | 291 kts | 262° |
| 2026-05-06 15:57 | 42.45315 | -82.29950 | 13332 ft | 290 kts | 262° |
| 2026-05-06 15:57 | 42.45036 | -82.33087 | 12852 ft | 289 kts | 260° |
| 2026-05-06 15:57 | 42.44670 | -82.36168 | 12364 ft | 288 kts | 260° |
| 2026-05-06 15:57 | 42.44304 | -82.39218 | 11885 ft | 287 kts | 260° |
| 2026-05-06 15:58 | 42.43932 | -82.42294 | 11403 ft | 286 kts | 261° |
| 2026-05-06 15:58 | 42.43567 | -82.45327 | 10915 ft | 285 kts | 261° |
| 2026-05-06 15:58 | 42.43196 | -82.48399 | 10436 ft | 284 kts | 261° |
| 2026-05-06 15:58 | 42.42835 | -82.51388 | 10221 ft | 273 kts | 261° |
| 2026-05-06 15:59 | 42.42489 | -82.54234 | 10091 ft | 259 kts | 261° |
| 2026-05-06 15:59 | 42.42160 | -82.56938 | 9961 ft | 247 kts | 261° |
| 2026-05-06 15:59 | 42.41835 | -82.59595 | 9570 ft | 247 kts | 261° |
| 2026-05-06 15:59 | 42.41510 | -82.62246 | 9174 ft | 247 kts | 261° |
| 2026-05-06 16:00 | 42.41190 | -82.64847 | 8800 ft | 246 kts | 261° |
| 2026-05-06 16:00 | 42.40866 | -82.67474 | 8423 ft | 245 kts | 261° |
| 2026-05-06 16:00 | 42.40545 | -82.70081 | 8048 ft | 245 kts | 261° |
| 2026-05-06 16:00 | 42.40223 | -82.72680 | 7676 ft | 244 kts | 262° |
| 2026-05-06 16:01 | 42.39902 | -82.75280 | 7309 ft | 243 kts | 262° |
| 2026-05-06 16:01 | 42.39862 | -82.77850 | 6931 ft | 241 kts | 281° |
| 2026-05-06 16:01 | 42.40557 | -82.80358 | 6871 ft | 253 kts | 297° |
| 2026-05-06 16:01 | 42.41550 | -82.82766 | 6847 ft | 255 kts | 298° |
| 2026-05-06 16:02 | 42.42564 | -82.85186 | 6449 ft | 255 kts | 299° |
| 2026-05-06 16:02 | 42.43561 | -82.87576 | 6213 ft | 246 kts | 299° |
| 2026-05-06 16:02 | 42.44499 | -82.89841 | 6131 ft | 231 kts | 299° |
| 2026-05-06 16:02 | 42.45380 | -82.91973 | 6034 ft | 219 kts | 299° |
| 2026-05-06 16:03 | 42.46220 | -82.94011 | 5970 ft | 218 kts | 299° |
| 2026-05-06 16:03 | 42.46853 | -82.96199 | 5947 ft | 219 kts | 272° |
| 2026-05-06 16:03 | 42.46279 | -82.98455 | 5962 ft | 227 kts | 234° |
| 2026-05-06 16:03 | 42.44811 | -82.99938 | 5968 ft | 236 kts | 208° |
| 2026-05-06 16:04 | 42.43090 | -83.00960 | 5966 ft | 237 kts | 208° |
| 2026-05-06 16:04 | 42.41355 | -83.02003 | 5963 ft | 237 kts | 208° |
| 2026-05-06 16:04 | 42.39623 | -83.03069 | 5965 ft | 237 kts | 209° |
| 2026-05-06 16:04 | 42.37926 | -83.04125 | 5970 ft | 237 kts | 210° |
| 2026-05-06 16:05 | 42.36208 | -83.05205 | 5970 ft | 236 kts | 210° |
| 2026-05-06 16:05 | 42.34507 | -83.06280 | 5973 ft | 236 kts | 210° |
| 2026-05-06 16:05 | 42.32795 | -83.07365 | 5974 ft | 236 kts | 210° |
| 2026-05-06 16:05 | 42.31105 | -83.08435 | 5969 ft | 236 kts | 210° |
| 2026-05-06 16:06 | 42.29410 | -83.09508 | 5971 ft | 236 kts | 210° |
| 2026-05-06 16:06 | 42.27694 | -83.10593 | 5972 ft | 236 kts | 210° |
| 2026-05-06 16:06 | 42.26008 | -83.11661 | 5972 ft | 236 kts | 210° |
| 2026-05-06 16:06 | 42.24295 | -83.12745 | 5969 ft | 237 kts | 210° |
| 2026-05-06 16:07 | 42.22609 | -83.13812 | 5973 ft | 237 kts | 210° |
| 2026-05-06 16:07 | 42.20894 | -83.14896 | 5972 ft | 237 kts | 210° |
| 2026-05-06 16:07 | 42.19194 | -83.15971 | 5976 ft | 237 kts | 210° |
| 2026-05-06 16:07 | 42.17484 | -83.17047 | 5973 ft | 236 kts | 210° |
| 2026-05-06 16:08 | 42.15799 | -83.18108 | 5972 ft | 236 kts | 210° |
| 2026-05-06 16:08 | 42.14102 | -83.19179 | 5973 ft | 236 kts | 210° |
| 2026-05-06 16:08 | 42.12392 | -83.20256 | 5971 ft | 236 kts | 211° |
| 2026-05-06 16:08 | 42.10718 | -83.21312 | 5972 ft | 235 kts | 210° |
| 2026-05-06 16:09 | 42.09018 | -83.22382 | 5975 ft | 236 kts | 210° |
| 2026-05-06 16:09 | 42.07332 | -83.23443 | 5974 ft | 236 kts | 210° |
| 2026-05-06 16:09 | 42.05641 | -83.24506 | 5975 ft | 236 kts | 210° |
| 2026-05-06 16:09 | 42.03944 | -83.25568 | 5979 ft | 236 kts | 210° |
| 2026-05-06 16:10 | 42.02235 | -83.26640 | 5982 ft | 237 kts | 210° |
| 2026-05-06 16:10 | 42.00539 | -83.27702 | 5981 ft | 237 kts | 210° |
| 2026-05-06 16:10 | 41.98821 | -83.28778 | 5981 ft | 237 kts | 210° |
| 2026-05-06 16:10 | 41.97128 | -83.29836 | 5981 ft | 238 kts | 211° |
| 2026-05-06 16:11 | 41.95422 | -83.30904 | 5980 ft | 237 kts | 210° |
| 2026-05-06 16:11 | 41.93725 | -83.31966 | 5981 ft | 236 kts | 210° |
| 2026-05-06 16:11 | 41.92039 | -83.33022 | 5983 ft | 236 kts | 210° |
| 2026-05-06 16:11 | 41.90380 | -83.34166 | 5972 ft | 232 kts | 224° |
| 2026-05-06 16:12 | 41.89478 | -83.36162 | 5972 ft | 220 kts | 266° |
| 2026-05-06 16:12 | 41.89496 | -83.38502 | 5982 ft | 217 kts | 274° |
| 2026-05-06 16:12 | 41.89527 | -83.40807 | 5981 ft | 218 kts | 272° |
| 2026-05-06 16:12 | 41.89525 | -83.43128 | 5980 ft | 217 kts | 272° |
| 2026-05-06 16:13 | 41.89516 | -83.45467 | 5983 ft | 218 kts | 272° |
| 2026-05-06 16:13 | 41.89502 | -83.47790 | 5985 ft | 219 kts | 272° |
| 2026-05-06 16:13 | 41.89754 | -83.49994 | 5966 ft | 216 kts | 300° |
| 2026-05-06 16:13 | 41.91021 | -83.51537 | 5971 ft | 221 kts | 336° |
| 2026-05-06 16:14 | 41.92759 | -83.51842 | 5924 ft | 221 kts | 355° |
| 2026-05-06 16:14 | 41.94525 | -83.51854 | 5600 ft | 219 kts | 355° |
| 2026-05-06 16:14 | 41.96278 | -83.51646 | 5279 ft | 220 kts | 7° |
| 2026-05-06 16:14 | 41.97949 | -83.50932 | 5079 ft | 215 kts | 19° |
| 2026-05-06 16:15 | 41.99470 | -83.49954 | 5031 ft | 211 kts | 22° |
| 2026-05-06 16:15 | 42.00966 | -83.48895 | 4742 ft | 211 kts | 24° |
| 2026-05-06 16:15 | 42.02443 | -83.47813 | 4412 ft | 210 kts | 24° |
| 2026-05-06 16:15 | 42.03915 | -83.46723 | 4083 ft | 209 kts | 24° |
| 2026-05-06 16:16 | 42.05362 | -83.45653 | 3759 ft | 209 kts | 24° |
| 2026-05-06 16:16 | 42.06827 | -83.44569 | 3434 ft | 208 kts | 24° |
| 2026-05-06 16:16 | 42.08279 | -83.43496 | 3115 ft | 206 kts | 25° |
| 2026-05-06 16:16 | 42.09732 | -83.42425 | 2814 ft | 204 kts | 25° |
| 2026-05-06 16:17 | 42.11106 | -83.41406 | 2576 ft | 191 kts | 24° |
| 2026-05-06 16:17 | 42.12397 | -83.40453 | 2262 ft | 176 kts | 25° |
| 2026-05-06 16:17 | 42.13584 | -83.39578 | 1978 ft | 162 kts | 24° |
| 2026-05-06 16:17 | 42.14639 | -83.38799 | 1719 ft | 147 kts | 24° |
| 2026-05-06 16:18 | 42.15615 | -83.38077 | 1490 ft | 139 kts | 23° |
| 2026-05-06 16:18 | 42.16582 | -83.37372 | 1305 ft | 138 kts | 24° |
| 2026-05-06 16:18 | 42.17525 | -83.36685 | 1127 ft | 138 kts | 24° |
| 2026-05-06 16:18 | 42.18479 | -83.35976 | 909 ft | 138 kts | 24° |
| 2026-05-06 16:19 | 42.19436 | -83.35276 | 694 ft | 137 kts | 25° |
| 2026-05-06 16:19 | 42.20319 | -83.34633 | 635 ft | 108 kts | 29° |
| 2026-05-06 16:19 | 42.20863 | -83.34222 | 635 ft | 51 kts | 30° |
| 2026-05-06 16:19 | 42.21094 | -83.34054 | 635 ft | 26 kts | 25° |
| 2026-05-06 16:20 | 42.21267 | -83.33972 | 635 ft | 18 kts | 6° |
| 2026-05-06 16:20 | 42.21378 | -83.33968 | 635 ft | 9 kts | 349° |
| 2026-05-06 16:20 | 42.21413 | -83.34048 | 635 ft | 10 kts | 250° |
| 2026-05-06 16:20 | 42.21347 | -83.34120 | 635 ft | 11 kts | 209° |
| 2026-05-06 16:21 | 42.21263 | -83.34180 | 635 ft | 12 kts | 209° |
| 2026-05-06 16:21 | 42.21175 | -83.34245 | 635 ft | 13 kts | 209° |
| 2026-05-06 16:21 | 42.21080 | -83.34315 | 635 ft | 13 kts | 209° |
| 2026-05-06 16:21 | 42.21035 | -83.34425 | 635 ft | 14 kts | 300° |
| 2026-05-06 16:22 | 42.21091 | -83.34557 | 635 ft | 14 kts | 298° |
| 2026-05-06 16:22 | 42.21146 | -83.34692 | 636 ft | 14 kts | 299° |
| 2026-05-06 16:22 | 42.21198 | -83.34818 | 638 ft | 12 kts | 299° |
| 2026-05-06 16:22 | 42.21251 | -83.34926 | 638 ft | 11 kts | 337° |
| 2026-05-06 16:23 | 42.21340 | -83.34955 | 638 ft | 12 kts | 328° |
| 2026-05-06 16:23 | 42.21424 | -83.35027 | 638 ft | 13 kts | 328° |
| 2026-05-06 16:23 | 42.21515 | -83.35100 | 638 ft | 13 kts | 330° |
| 2026-05-06 16:23 | 42.21529 | -83.35209 | 638 ft | 13 kts | 197° |
| 2026-05-06 16:24 | 42.21438 | -83.35227 | 638 ft | 4 kts | 201° |
| 2026-05-06 16:24 | 42.21424 | -83.35268 | 638 ft | 5 kts | 292° |
| 2026-05-06 16:24 | 42.21437 | -83.35303 | 638 ft | 1 kts | 298° |
| 2026-05-06 16:24 | 42.21437 | -83.35304 | 638 ft | 0 kts | 298° |